sensor_id;sensor_type;location;lat;lon;timestamp;P1;durP1;ratioP1;P2;durP2;ratioP2
68224;SDS011;57497;43.322;21.932;2024-02-26T00:00:36;26.6;;;17.4;;
68224;SDS011;57497;43.322;21.932;2024-02-26T00:05:35;26.3;;;16.6;;
68224;SDS011;57497;43.322;21.932;2024-02-26T00:10:33;28.8;;;16.6;;
68224;SDS011;57497;43.322;21.932;2024-02-26T00:15:33;18.7;;;12;;
68224;SDS011;57497;43.322;21.932;2024-02-26T00:20:34;21.4;;;11.1;;
68224;SDS011;57497;43.322;21.932;2024-02-26T00:25:33;17.7;;;12.8;;
68224;SDS011;57497;43.322;21.932;2024-02-26T00:30:33;20.1;;;11.9;;
68224;SDS011;57497;43.322;21.932;2024-02-26T00:35:33;25.6;;;13.7;;
68224;SDS011;57497;43.322;21.932;2024-02-26T00:40:33;31.3;;;14.7;;
68224;SDS011;57497;43.322;21.932;2024-02-26T00:45:34;27.8;;;13;;
68224;SDS011;57497;43.322;21.932;2024-02-26T00:50:34;30.9;;;13.7;;
68224;SDS011;57497;43.322;21.932;2024-02-26T00:55:33;17.5;;;9.9;;
68224;SDS011;57497;43.322;21.932;2024-02-26T01:00:35;22.4;;;10.3;;
68224;SDS011;57497;43.322;21.932;2024-02-26T01:05:33;21.8;;;10.3;;
68224;SDS011;57497;43.322;21.932;2024-02-26T01:10:34;14.6;;;9.6;;
68224;SDS011;57497;43.322;21.932;2024-02-26T01:15:33;17.3;;;7.7;;
68224;SDS011;57497;43.322;21.932;2024-02-26T01:20:33;17.7;;;9.2;;
68224;SDS011;57497;43.322;21.932;2024-02-26T01:25:33;7.1;;;5.5;;
68224;SDS011;57497;43.322;21.932;2024-02-26T01:30:33;28.1;;;15.8;;
68224;SDS011;57497;43.322;21.932;2024-02-26T01:35:33;35.1;;;16.5;;
68224;SDS011;57497;43.322;21.932;2024-02-26T01:40:34;16.6;;;10;;
68224;SDS011;57497;43.322;21.932;2024-02-26T01:45:33;19.6;;;8.5;;
68224;SDS011;57497;43.322;21.932;2024-02-26T01:50:33;13.7;;;8;;
68224;SDS011;57497;43.322;21.932;2024-02-26T01:55:33;19.6;;;6.9;;
68224;SDS011;57497;43.322;21.932;2024-02-26T02:00:35;8.8;;;6.5;;
68224;SDS011;57497;43.322;21.932;2024-02-26T02:05:33;10.3;;;6.7;;
68224;SDS011;57497;43.322;21.932;2024-02-26T02:10:34;11.8;;;6.7;;
68224;SDS011;57497;43.322;21.932;2024-02-26T02:15:33;10.6;;;6.7;;
68224;SDS011;57497;43.322;21.932;2024-02-26T02:20:33;12.7;;;7.8;;
68224;SDS011;57497;43.322;21.932;2024-02-26T02:25:33;13.3;;;7.9;;
68224;SDS011;57497;43.322;21.932;2024-02-26T02:30:33;11.1;;;6.3;;
68224;SDS011;57497;43.322;21.932;2024-02-26T02:35:34;17.2;;;8.6;;
68224;SDS011;57497;43.322;21.932;2024-02-26T02:40:34;13.3;;;7.8;;
68224;SDS011;57497;43.322;21.932;2024-02-26T02:45:33;9.6;;;6.8;;
68224;SDS011;57497;43.322;21.932;2024-02-26T02:50:33;13.7;;;6.6;;
68224;SDS011;57497;43.322;21.932;2024-02-26T02:55:33;7.9;;;6.2;;
68224;SDS011;57497;43.322;21.932;2024-02-26T03:00:35;11.5;;;5.4;;
68224;SDS011;57497;43.322;21.932;2024-02-26T03:05:33;7.9;;;5.4;;
68224;SDS011;57497;43.322;21.932;2024-02-26T03:10:33;13.1;;;5.5;;
68224;SDS011;57497;43.322;21.932;2024-02-26T03:15:33;11.4;;;4.9;;
68224;SDS011;57497;43.322;21.932;2024-02-26T03:20:34;5.5;;;3.9;;
68224;SDS011;57497;43.322;21.932;2024-02-26T03:25:33;8.3;;;6.3;;
68224;SDS011;57497;43.322;21.932;2024-02-26T03:30:33;11.5;;;7.3;;
68224;SDS011;57497;43.322;21.932;2024-02-26T03:35:33;18.3;;;6.7;;
68224;SDS011;57497;43.322;21.932;2024-02-26T03:40:33;9.4;;;5.8;;
68224;SDS011;57497;43.322;21.932;2024-02-26T03:45:34;8.8;;;5.8;;
68224;SDS011;57497;43.322;21.932;2024-02-26T03:50:33;13.6;;;6.4;;
68224;SDS011;57497;43.322;21.932;2024-02-26T03:55:33;13.3;;;6.5;;
68224;SDS011;57497;43.322;21.932;2024-02-26T04:00:35;7.8;;;5.7;;
68224;SDS011;57497;43.322;21.932;2024-02-26T04:05:33;8.8;;;6.2;;
68224;SDS011;57497;43.322;21.932;2024-02-26T04:10:34;9.4;;;5.7;;
68224;SDS011;57497;43.322;21.932;2024-02-26T04:15:34;8.7;;;5.4;;
68224;SDS011;57497;43.322;21.932;2024-02-26T04:20:33;18.3;;;5.3;;
68224;SDS011;57497;43.322;21.932;2024-02-26T04:25:33;16.3;;;5.8;;
68224;SDS011;57497;43.322;21.932;2024-02-26T04:30:33;9.6;;;6.3;;
68224;SDS011;57497;43.322;21.932;2024-02-26T04:35:33;8.5;;;6;;
68224;SDS011;57497;43.322;21.932;2024-02-26T04:40:34;9.2;;;6.5;;
68224;SDS011;57497;43.322;21.932;2024-02-26T04:45:33;9.6;;;5.1;;
68224;SDS011;57497;43.322;21.932;2024-02-26T04:50:33;13.8;;;6.4;;
68224;SDS011;57497;43.322;21.932;2024-02-26T04:55:34;7.1;;;5.8;;
68224;SDS011;57497;43.322;21.932;2024-02-26T05:00:36;11.6;;;5.2;;
68224;SDS011;57497;43.322;21.932;2024-02-26T05:05:35;10.4;;;4.8;;
68224;SDS011;57497;43.322;21.932;2024-02-26T05:10:33;10.9;;;6.4;;
68224;SDS011;57497;43.322;21.932;2024-02-26T05:15:33;11.6;;;6.1;;
68224;SDS011;57497;43.322;21.932;2024-02-26T05:20:33;11.7;;;4.2;;
68224;SDS011;57497;43.322;21.932;2024-02-26T05:25:33;30.5;;;7;;
68224;SDS011;57497;43.322;21.932;2024-02-26T05:30:33;9.3;;;5.5;;
68224;SDS011;57497;43.322;21.932;2024-02-26T05:35:33;9.3;;;6.7;;
68224;SDS011;57497;43.322;21.932;2024-02-26T05:40:33;8.8;;;5.7;;
68224;SDS011;57497;43.322;21.932;2024-02-26T05:45:33;10;;;4.9;;
68224;SDS011;57497;43.322;21.932;2024-02-26T05:50:33;10.2;;;5;;
68224;SDS011;57497;43.322;21.932;2024-02-26T05:55:33;10;;;7.1;;
68224;SDS011;57497;43.322;21.932;2024-02-26T06:00:35;11.9;;;6.6;;
68224;SDS011;57497;43.322;21.932;2024-02-26T06:05:33;44.3;;;9.9;;
68224;SDS011;57497;43.322;21.932;2024-02-26T06:10:34;9.7;;;5.9;;
68224;SDS011;57497;43.322;21.932;2024-02-26T06:15:33;9.6;;;5;;
68224;SDS011;57497;43.322;21.932;2024-02-26T06:20:33;12.7;;;6.1;;
68224;SDS011;57497;43.322;21.932;2024-02-26T06:25:33;11.5;;;4.6;;
68224;SDS011;57497;43.322;21.932;2024-02-26T06:30:33;5.4;;;4.3;;
68224;SDS011;57497;43.322;21.932;2024-02-26T06:35:33;9.9;;;6;;
68224;SDS011;57497;43.322;21.932;2024-02-26T06:40:34;13.7;;;5.7;;
68224;SDS011;57497;43.322;21.932;2024-02-26T06:45:33;6.5;;;4.9;;
68224;SDS011;57497;43.322;21.932;2024-02-26T06:50:33;8.1;;;4.7;;
68224;SDS011;57497;43.322;21.932;2024-02-26T06:55:33;8.8;;;6.5;;
68224;SDS011;57497;43.322;21.932;2024-02-26T07:00:35;25.6;;;5.4;;
68224;SDS011;57497;43.322;21.932;2024-02-26T07:05:33;10.2;;;5.4;;
68224;SDS011;57497;43.322;21.932;2024-02-26T07:10:33;7.2;;;4.4;;
68224;SDS011;57497;43.322;21.932;2024-02-26T07:15:33;15.1;;;5.4;;
68224;SDS011;57497;43.322;21.932;2024-02-26T07:20:33;10.3;;;5.9;;
68224;SDS011;57497;43.322;21.932;2024-02-26T07:25:33;18.6;;;6.8;;
68224;SDS011;57497;43.322;21.932;2024-02-26T07:30:33;11.4;;;9.4;;
68224;SDS011;57497;43.322;21.932;2024-02-26T07:35:33;12.7;;;6.8;;
68224;SDS011;57497;43.322;21.932;2024-02-26T07:40:33;13.6;;;7.5;;
68224;SDS011;57497;43.322;21.932;2024-02-26T07:45:33;8.4;;;5.8;;
68224;SDS011;57497;43.322;21.932;2024-02-26T07:50:33;9.1;;;5.7;;
68224;SDS011;57497;43.322;21.932;2024-02-26T07:55:34;10.1;;;5.5;;
68224;SDS011;57497;43.322;21.932;2024-02-26T08:00:35;9.9;;;6.8;;
68224;SDS011;57497;43.322;21.932;2024-02-26T08:05:34;8.3;;;6.2;;
68224;SDS011;57497;43.322;21.932;2024-02-26T08:10:33;12.6;;;7.1;;
68224;SDS011;57497;43.322;21.932;2024-02-26T08:15:34;6.1;;;5.3;;
68224;SDS011;57497;43.322;21.932;2024-02-26T08:20:33;9.5;;;8.5;;
68224;SDS011;57497;43.322;21.932;2024-02-26T08:25:33;10;;;6.6;;
68224;SDS011;57497;43.322;21.932;2024-02-26T08:30:33;10.5;;;5.7;;
68224;SDS011;57497;43.322;21.932;2024-02-26T08:35:33;7.1;;;4.3;;
68224;SDS011;57497;43.322;21.932;2024-02-26T08:40:34;7.3;;;5.3;;
68224;SDS011;57497;43.322;21.932;2024-02-26T08:45:34;8.2;;;4.8;;
68224;SDS011;57497;43.322;21.932;2024-02-26T08:50:33;8.4;;;5.7;;
68224;SDS011;57497;43.322;21.932;2024-02-26T08:55:33;13;;;5.5;;
68224;SDS011;57497;43.322;21.932;2024-02-26T09:00:35;7.5;;;5.2;;
68224;SDS011;57497;43.322;21.932;2024-02-26T09:05:34;10.2;;;5;;
68224;SDS011;57497;43.322;21.932;2024-02-26T09:10:34;14.2;;;5.8;;
68224;SDS011;57497;43.322;21.932;2024-02-26T09:15:34;9.9;;;5.1;;
68224;SDS011;57497;43.322;21.932;2024-02-26T09:20:33;9.2;;;6;;
68224;SDS011;57497;43.322;21.932;2024-02-26T09:25:33;12.6;;;5;;
68224;SDS011;57497;43.322;21.932;2024-02-26T09:30:33;7.3;;;5.3;;
68224;SDS011;57497;43.322;21.932;2024-02-26T09:35:33;12.9;;;4.9;;
68224;SDS011;57497;43.322;21.932;2024-02-26T09:40:33;8.5;;;5;;
68224;SDS011;57497;43.322;21.932;2024-02-26T09:45:34;8.3;;;5.5;;
68224;SDS011;57497;43.322;21.932;2024-02-26T09:50:34;6.1;;;4;;
68224;SDS011;57497;43.322;21.932;2024-02-26T09:55:33;11;;;5.1;;
68224;SDS011;57497;43.322;21.932;2024-02-26T10:00:36;8.8;;;4.6;;
68224;SDS011;57497;43.322;21.932;2024-02-26T10:05:33;7.1;;;4.9;;
68224;SDS011;57497;43.322;21.932;2024-02-26T10:10:33;8;;;5.1;;
68224;SDS011;57497;43.322;21.932;2024-02-26T10:15:33;7.9;;;5.8;;
68224;SDS011;57497;43.322;21.932;2024-02-26T10:20:33;8.4;;;4.1;;
68224;SDS011;57497;43.322;21.932;2024-02-26T10:25:33;9;;;6;;
68224;SDS011;57497;43.322;21.932;2024-02-26T10:30:36;8.3;;;4.6;;
68224;SDS011;57497;43.322;21.932;2024-02-26T10:35:33;8.2;;;4.5;;
68224;SDS011;57497;43.322;21.932;2024-02-26T10:40:33;8.5;;;3.9;;
68224;SDS011;57497;43.322;21.932;2024-02-26T10:45:33;6.3;;;3.7;;
68224;SDS011;57497;43.322;21.932;2024-02-26T10:50:33;7.1;;;4.6;;
68224;SDS011;57497;43.322;21.932;2024-02-26T10:55:34;3.5;;;3.2;;
68224;SDS011;57497;43.322;21.932;2024-02-26T11:00:36;10.3;;;3.8;;
68224;SDS011;57497;43.322;21.932;2024-02-26T11:05:33;10.5;;;4.6;;
68224;SDS011;57497;43.322;21.932;2024-02-26T11:10:33;4.1;;;2.8;;
68224;SDS011;57497;43.322;21.932;2024-02-26T11:15:34;5.2;;;3.6;;
68224;SDS011;57497;43.322;21.932;2024-02-26T11:20:33;4.7;;;3;;
68224;SDS011;57497;43.322;21.932;2024-02-26T11:25:33;5.8;;;3.8;;
68224;SDS011;57497;43.322;21.932;2024-02-26T11:30:33;12.6;;;4;;
68224;SDS011;57497;43.322;21.932;2024-02-26T11:35:33;7.4;;;4.2;;
68224;SDS011;57497;43.322;21.932;2024-02-26T11:40:33;8.5;;;2.8;;
68224;SDS011;57497;43.322;21.932;2024-02-26T11:46:06;5.9;;;3.5;;
68224;SDS011;57497;43.322;21.932;2024-02-26T11:50:34;5.1;;;4;;
68224;SDS011;57497;43.322;21.932;2024-02-26T11:55:33;11;;;3.8;;
68224;SDS011;57497;43.322;21.932;2024-02-26T12:00:35;11.3;;;3.9;;
68224;SDS011;57497;43.322;21.932;2024-02-26T12:05:33;8.7;;;4.4;;
68224;SDS011;57497;43.322;21.932;2024-02-26T12:10:35;5.9;;;3.2;;
68224;SDS011;57497;43.322;21.932;2024-02-26T12:15:34;7;;;3.1;;
68224;SDS011;57497;43.322;21.932;2024-02-26T12:20:33;13;;;3.5;;
68224;SDS011;57497;43.322;21.932;2024-02-26T12:25:33;8;;;4.9;;
68224;SDS011;57497;43.322;21.932;2024-02-26T12:30:33;18.2;;;3.8;;
68224;SDS011;57497;43.322;21.932;2024-02-26T12:35:33;6.7;;;3.9;;
68224;SDS011;57497;43.322;21.932;2024-02-26T12:40:33;6.5;;;3.9;;
68224;SDS011;57497;43.322;21.932;2024-02-26T12:45:34;7.7;;;3.9;;
68224;SDS011;57497;43.322;21.932;2024-02-26T12:50:34;8.2;;;4.1;;
68224;SDS011;57497;43.322;21.932;2024-02-26T12:55:34;4.2;;;3;;
68224;SDS011;57497;43.322;21.932;2024-02-26T13:00:35;6.8;;;3.9;;
68224;SDS011;57497;43.322;21.932;2024-02-26T13:05:34;18.9;;;3.9;;
68224;SDS011;57497;43.322;21.932;2024-02-26T13:10:33;5.5;;;3.8;;
68224;SDS011;57497;43.322;21.932;2024-02-26T13:15:33;7.6;;;4.6;;
68224;SDS011;57497;43.322;21.932;2024-02-26T13:20:33;6.2;;;3.9;;
68224;SDS011;57497;43.322;21.932;2024-02-26T13:25:33;7.7;;;4.4;;
68224;SDS011;57497;43.322;21.932;2024-02-26T13:30:33;6.8;;;4.9;;
68224;SDS011;57497;43.322;21.932;2024-02-26T13:35:33;3.9;;;3;;
68224;SDS011;57497;43.322;21.932;2024-02-26T13:40:34;7.5;;;3.6;;
68224;SDS011;57497;43.322;21.932;2024-02-26T13:45:33;7.1;;;4.5;;
68224;SDS011;57497;43.322;21.932;2024-02-26T13:50:34;11.5;;;4.7;;
68224;SDS011;57497;43.322;21.932;2024-02-26T13:55:34;5.9;;;4.5;;
68224;SDS011;57497;43.322;21.932;2024-02-26T14:00:35;7;;;4.4;;
68224;SDS011;57497;43.322;21.932;2024-02-26T14:05:33;8;;;5.5;;
68224;SDS011;57497;43.322;21.932;2024-02-26T14:10:34;5.1;;;3.8;;
68224;SDS011;57497;43.322;21.932;2024-02-26T14:15:34;5.4;;;3.6;;
68224;SDS011;57497;43.322;21.932;2024-02-26T14:20:34;5.3;;;3.9;;
68224;SDS011;57497;43.322;21.932;2024-02-26T14:25:33;11.6;;;6.5;;
68224;SDS011;57497;43.322;21.932;2024-02-26T14:30:33;11.5;;;8.4;;
68224;SDS011;57497;43.322;21.932;2024-02-26T14:35:33;8.2;;;7.5;;
68224;SDS011;57497;43.322;21.932;2024-02-26T14:40:33;8.1;;;7.3;;
68224;SDS011;57497;43.322;21.932;2024-02-26T14:45:34;8.3;;;6.9;;
68224;SDS011;57497;43.322;21.932;2024-02-26T14:50:33;9.8;;;7;;
68224;SDS011;57497;43.322;21.932;2024-02-26T14:55:33;8;;;5.9;;
68224;SDS011;57497;43.322;21.932;2024-02-26T15:00:35;6.6;;;5.9;;
68224;SDS011;57497;43.322;21.932;2024-02-26T15:05:34;16.3;;;7.7;;
68224;SDS011;57497;43.322;21.932;2024-02-26T15:10:33;8.2;;;7.3;;
68224;SDS011;57497;43.322;21.932;2024-02-26T15:15:33;10.2;;;5.4;;
68224;SDS011;57497;43.322;21.932;2024-02-26T15:20:33;4.7;;;3.5;;
68224;SDS011;57497;43.322;21.932;2024-02-26T15:25:33;9.5;;;4.6;;
68224;SDS011;57497;43.322;21.932;2024-02-26T15:30:34;10.5;;;4.4;;
68224;SDS011;57497;43.322;21.932;2024-02-26T15:35:33;6.7;;;3.8;;
68224;SDS011;57497;43.322;21.932;2024-02-26T15:40:33;7.5;;;5.5;;
68224;SDS011;57497;43.322;21.932;2024-02-26T15:45:33;9.9;;;5.1;;
68224;SDS011;57497;43.322;21.932;2024-02-26T15:50:33;6.2;;;4.9;;
68224;SDS011;57497;43.322;21.932;2024-02-26T15:55:33;14.3;;;4.9;;
68224;SDS011;57497;43.322;21.932;2024-02-26T16:00:38;11.1;;;5.3;;
68224;SDS011;57497;43.322;21.932;2024-02-26T16:05:35;4.3;;;3.2;;
68224;SDS011;57497;43.322;21.932;2024-02-26T16:10:33;13;;;4.8;;
68224;SDS011;57497;43.322;21.932;2024-02-26T16:15:34;5.5;;;4;;
68224;SDS011;57497;43.322;21.932;2024-02-26T16:20:33;11.2;;;4.2;;
68224;SDS011;57497;43.322;21.932;2024-02-26T16:25:33;10.6;;;4.9;;
68224;SDS011;57497;43.322;21.932;2024-02-26T16:30:33;13.2;;;5.8;;
68224;SDS011;57497;43.322;21.932;2024-02-26T16:35:33;6.3;;;4.1;;
68224;SDS011;57497;43.322;21.932;2024-02-26T16:40:33;15.8;;;4.3;;
68224;SDS011;57497;43.322;21.932;2024-02-26T16:45:33;7.2;;;6.1;;
68224;SDS011;57497;43.322;21.932;2024-02-26T16:50:34;12.4;;;7.5;;
68224;SDS011;57497;43.322;21.932;2024-02-26T16:55:33;17.3;;;7;;
68224;SDS011;57497;43.322;21.932;2024-02-26T17:00:35;17.9;;;5.5;;
68224;SDS011;57497;43.322;21.932;2024-02-26T17:05:33;8.6;;;6.4;;
68224;SDS011;57497;43.322;21.932;2024-02-26T17:10:33;11.7;;;6.9;;
68224;SDS011;57497;43.322;21.932;2024-02-26T17:15:34;15.1;;;7.8;;
68224;SDS011;57497;43.322;21.932;2024-02-26T17:20:34;13.7;;;9.7;;
68224;SDS011;57497;43.322;21.932;2024-02-26T17:25:34;18.5;;;11.1;;
68224;SDS011;57497;43.322;21.932;2024-02-26T17:30:34;32.5;;;18.2;;
68224;SDS011;57497;43.322;21.932;2024-02-26T17:35:34;34.6;;;21.2;;
68224;SDS011;57497;43.322;21.932;2024-02-26T17:40:33;28.4;;;17;;
68224;SDS011;57497;43.322;21.932;2024-02-26T17:45:33;22.8;;;14.2;;
68224;SDS011;57497;43.322;21.932;2024-02-26T17:50:33;20.5;;;13.3;;
68224;SDS011;57497;43.322;21.932;2024-02-26T17:55:33;37;;;17.8;;
68224;SDS011;57497;43.322;21.932;2024-02-26T18:00:36;27;;;14.7;;
68224;SDS011;57497;43.322;21.932;2024-02-26T18:05:33;26.2;;;14;;
68224;SDS011;57497;43.322;21.932;2024-02-26T18:10:34;31.3;;;15.3;;
68224;SDS011;57497;43.322;21.932;2024-02-26T18:15:33;50.9;;;16.1;;
68224;SDS011;57497;43.322;21.932;2024-02-26T18:20:33;22.4;;;14.6;;
68224;SDS011;57497;43.322;21.932;2024-02-26T18:25:33;29.9;;;17.5;;
68224;SDS011;57497;43.322;21.932;2024-02-26T18:30:33;36.5;;;20.1;;
68224;SDS011;57497;43.322;21.932;2024-02-26T18:35:33;38.5;;;17.3;;
68224;SDS011;57497;43.322;21.932;2024-02-26T18:40:33;30.2;;;18.6;;
68224;SDS011;57497;43.322;21.932;2024-02-26T18:45:33;48;;;24.6;;
68224;SDS011;57497;43.322;21.932;2024-02-26T18:50:33;63.2;;;38.8;;
68224;SDS011;57497;43.322;21.932;2024-02-26T18:55:33;76.9;;;32;;
68224;SDS011;57497;43.322;21.932;2024-02-26T19:00:35;48.5;;;30;;
68224;SDS011;57497;43.322;21.932;2024-02-26T19:05:34;46.2;;;23.2;;
68224;SDS011;57497;43.322;21.932;2024-02-26T19:10:33;42.8;;;24.7;;
68224;SDS011;57497;43.322;21.932;2024-02-26T19:15:33;48.2;;;29.2;;
68224;SDS011;57497;43.322;21.932;2024-02-26T19:20:33;36.6;;;23.4;;
68224;SDS011;57497;43.322;21.932;2024-02-26T19:25:34;30.2;;;19;;
68224;SDS011;57497;43.322;21.932;2024-02-26T19:30:33;34.9;;;20.1;;
68224;SDS011;57497;43.322;21.932;2024-02-26T19:35:33;37.6;;;22.9;;
68224;SDS011;57497;43.322;21.932;2024-02-26T19:40:33;36.6;;;19.7;;
68224;SDS011;57497;43.322;21.932;2024-02-26T19:45:33;32.7;;;23.5;;
68224;SDS011;57497;43.322;21.932;2024-02-26T19:50:34;38.7;;;20.2;;
68224;SDS011;57497;43.322;21.932;2024-02-26T19:55:34;26.7;;;17.9;;
68224;SDS011;57497;43.322;21.932;2024-02-26T20:00:35;29.5;;;18.3;;
68224;SDS011;57497;43.322;21.932;2024-02-26T20:05:33;45.4;;;23.7;;
68224;SDS011;57497;43.322;21.932;2024-02-26T20:10:33;55.6;;;28.9;;
68224;SDS011;57497;43.322;21.932;2024-02-26T20:15:33;41.9;;;29.1;;
68224;SDS011;57497;43.322;21.932;2024-02-26T20:20:34;37.9;;;23.7;;
68224;SDS011;57497;43.322;21.932;2024-02-26T20:25:33;42.9;;;27.9;;
68224;SDS011;57497;43.322;21.932;2024-02-26T20:30:33;55.1;;;26.8;;
68224;SDS011;57497;43.322;21.932;2024-02-26T20:35:33;50.9;;;28;;
68224;SDS011;57497;43.322;21.932;2024-02-26T20:40:33;64;;;34.1;;
68224;SDS011;57497;43.322;21.932;2024-02-26T20:45:33;65.3;;;28.5;;
68224;SDS011;57497;43.322;21.932;2024-02-26T20:50:33;56.1;;;27.4;;
68224;SDS011;57497;43.322;21.932;2024-02-26T20:55:33;29.4;;;21.2;;
68224;SDS011;57497;43.322;21.932;2024-02-26T21:00:35;31.5;;;21.8;;
68224;SDS011;57497;43.322;21.932;2024-02-26T21:05:33;37.4;;;23.3;;
68224;SDS011;57497;43.322;21.932;2024-02-26T21:10:33;37.7;;;17;;
68224;SDS011;57497;43.322;21.932;2024-02-26T21:15:34;19.9;;;11.5;;
68224;SDS011;57497;43.322;21.932;2024-02-26T21:20:33;21.3;;;13;;
68224;SDS011;57497;43.322;21.932;2024-02-26T21:25:34;19.8;;;14.4;;
68224;SDS011;57497;43.322;21.932;2024-02-26T21:30:34;35.3;;;15.4;;
68224;SDS011;57497;43.322;21.932;2024-02-26T21:35:33;24.6;;;15.1;;
68224;SDS011;57497;43.322;21.932;2024-02-26T21:40:33;24.9;;;13.2;;
68224;SDS011;57497;43.322;21.932;2024-02-26T21:45:33;27;;;17.3;;
68224;SDS011;57497;43.322;21.932;2024-02-26T21:50:33;18.3;;;13.1;;
68224;SDS011;57497;43.322;21.932;2024-02-26T21:55:34;26.6;;;16.1;;
68224;SDS011;57497;43.322;21.932;2024-02-26T22:00:35;23.9;;;15.4;;
68224;SDS011;57497;43.322;21.932;2024-02-26T22:05:33;28;;;14.7;;
68224;SDS011;57497;43.322;21.932;2024-02-26T22:10:33;28.8;;;14.6;;
68224;SDS011;57497;43.322;21.932;2024-02-26T22:15:33;21.5;;;12.5;;
68224;SDS011;57497;43.322;21.932;2024-02-26T22:20:34;25.9;;;14.7;;
68224;SDS011;57497;43.322;21.932;2024-02-26T22:25:33;13.5;;;8.6;;
68224;SDS011;57497;43.322;21.932;2024-02-26T22:30:33;14.5;;;9.4;;
68224;SDS011;57497;43.322;21.932;2024-02-26T22:35:33;12.8;;;7.1;;
68224;SDS011;57497;43.322;21.932;2024-02-26T22:40:34;13.5;;;7.9;;
68224;SDS011;57497;43.322;21.932;2024-02-26T22:45:33;11.5;;;8.4;;
68224;SDS011;57497;43.322;21.932;2024-02-26T22:50:33;14.2;;;6.8;;
68224;SDS011;57497;43.322;21.932;2024-02-26T22:55:33;13.4;;;8.1;;
68224;SDS011;57497;43.322;21.932;2024-02-26T23:00:35;14.2;;;8.6;;
68224;SDS011;57497;43.322;21.932;2024-02-26T23:05:35;13.8;;;9;;
68224;SDS011;57497;43.322;21.932;2024-02-26T23:10:33;19.3;;;7.8;;
68224;SDS011;57497;43.322;21.932;2024-02-26T23:15:33;16.7;;;8.3;;
68224;SDS011;57497;43.322;21.932;2024-02-26T23:20:33;26;;;10.9;;
68224;SDS011;57497;43.322;21.932;2024-02-26T23:25:34;19.7;;;11.6;;
68224;SDS011;57497;43.322;21.932;2024-02-26T23:30:34;20.7;;;12.3;;
68224;SDS011;57497;43.322;21.932;2024-02-26T23:35:33;19.2;;;13.1;;
68224;SDS011;57497;43.322;21.932;2024-02-26T23:40:33;17.8;;;12.8;;
68224;SDS011;57497;43.322;21.932;2024-02-26T23:45:33;18;;;13.5;;
68224;SDS011;57497;43.322;21.932;2024-02-26T23:50:33;18.3;;;12.1;;
68224;SDS011;57497;43.322;21.932;2024-02-26T23:55:33;26.1;;;14.1;;
